createdAt,value
2022-08-30T00:01:05.330Z,1.17
2022-08-30T00:03:52.282Z,1.38
2022-08-30T00:06:38.234Z,1.30
2022-08-30T00:09:24.137Z,1.40
2022-08-30T00:12:10.398Z,1.20
2022-08-30T00:14:56.267Z,1.20
2022-08-30T00:17:42.301Z,1.20
2022-08-30T00:20:30.358Z,1.50
2022-08-30T00:23:16.630Z,1.10
2022-08-30T00:26:02.607Z,1.10
2022-08-30T00:28:48.650Z,1.20
2022-08-30T00:31:34.555Z,1.42
2022-08-30T00:34:20.364Z,1.33
2022-08-30T00:37:06.465Z,1.45
2022-08-30T00:39:52.338Z,1.67
2022-08-30T00:42:38.667Z,1.40
2022-08-30T00:45:31.567Z,1.23
2022-08-30T00:48:17.440Z,1.23
2022-08-30T00:51:07.497Z,1.20
2022-08-30T00:53:56.784Z,1.30
2022-08-30T00:56:42.937Z,1.20
2022-08-30T00:59:29.423Z,1.23
2022-08-30T01:02:15.072Z,1.50
2022-08-30T01:05:03.564Z,1.38
2022-08-30T01:07:49.365Z,1.30
2022-08-30T01:10:36.319Z,1.20
2022-08-30T01:13:23.609Z,1.05
2022-08-30T01:16:09.814Z,1.30
2022-08-30T01:18:58.153Z,1.33
2022-08-30T01:21:48.815Z,1.40
2022-08-30T01:24:35.624Z,1.50
2022-08-30T01:27:22.893Z,1.52
2022-08-30T01:30:09.798Z,1.40
2022-08-30T01:33:03.671Z,1.50
2022-08-30T01:35:49.793Z,1.35
2022-08-30T01:38:39.583Z,1.50
2022-08-30T01:41:28.789Z,1.45
2022-08-30T01:44:15.318Z,1.50
2022-08-30T01:47:01.053Z,1.30
2022-08-30T01:49:47.167Z,1.40
2022-08-30T01:52:33.383Z,1.48
2022-08-30T01:55:19.711Z,1.30
2022-08-30T01:58:06.106Z,1.40
2022-08-30T02:00:52.158Z,1.38
2022-08-30T02:03:38.394Z,1.30
2022-08-30T02:06:24.483Z,1.40
2022-08-30T02:09:10.401Z,1.50
2022-08-30T02:11:56.256Z,1.45
2022-08-30T02:14:42.065Z,1.27
2022-08-30T02:17:28.067Z,1.10
2022-08-30T02:20:14.022Z,1.33
2022-08-30T02:23:11.557Z,1.40
2022-08-30T02:25:57.492Z,1.30
2022-08-30T02:28:49.859Z,1.52
2022-08-30T02:31:36.311Z,1.77
2022-08-30T02:34:22.130Z,1.55
2022-08-30T02:37:09.044Z,1.58
2022-08-30T02:39:54.809Z,1.60
2022-08-30T02:42:41.817Z,1.65
2022-08-30T02:45:28.207Z,1.77
2022-08-30T02:48:14.482Z,1.73
2022-08-30T02:51:11.640Z,2.08
2022-08-30T02:53:57.948Z,1.60
2022-08-30T02:56:44.221Z,1.75
2022-08-30T02:59:30.334Z,2.25
2022-08-30T03:02:16.188Z,1.92
2022-08-30T03:05:04.209Z,2.13
2022-08-30T03:07:49.981Z,2.15
2022-08-30T03:10:36.025Z,2.00
2022-08-30T03:13:21.702Z,1.98
2022-08-30T03:16:07.553Z,2.28
2022-08-30T03:18:53.429Z,2.85
2022-08-30T03:21:39.309Z,2.47
2022-08-30T03:24:26.345Z,2.40
2022-08-30T03:27:12.663Z,2.75
2022-08-30T03:29:58.714Z,3.13
2022-08-30T03:32:44.762Z,3.38
2022-08-30T03:35:33.225Z,2.95
2022-08-30T03:38:19.252Z,3.60
2022-08-30T03:41:05.969Z,3.63
2022-08-30T03:43:53.290Z,3.75
2022-08-30T03:46:45.671Z,6.95
2022-08-30T03:49:31.781Z,8.05
2022-08-30T03:52:17.508Z,9.07
2022-08-30T03:55:05.094Z,8.60
2022-08-30T03:57:50.898Z,8.75
2022-08-30T04:00:37.723Z,8.75
2022-08-30T04:03:26.000Z,8.52
2022-08-30T04:06:12.398Z,8.95
2022-08-30T04:08:58.127Z,9.32
2022-08-30T04:11:44.091Z,9.25
2022-08-30T04:14:29.904Z,9.70
2022-08-30T04:17:15.865Z,8.43
2022-08-30T04:20:02.008Z,9.55
2022-08-30T04:22:47.867Z,9.57
2022-08-30T04:25:34.877Z,10.88
2022-08-30T04:28:21.070Z,10.77
2022-08-30T04:31:12.151Z,11.43
2022-08-30T04:33:58.218Z,11.25
2022-08-30T04:36:48.070Z,11.73
2022-08-30T04:39:34.396Z,12.13
2022-08-30T04:42:20.735Z,11.88
2022-08-30T04:45:10.155Z,12.05
2022-08-30T04:47:56.460Z,11.50
2022-08-30T04:50:43.558Z,12.55
2022-08-30T04:53:30.704Z,11.80
2022-08-30T04:56:22.229Z,12.35
2022-08-30T04:59:07.955Z,11.90
2022-08-30T05:01:53.825Z,10.77
2022-08-30T05:04:59.557Z,11.45
2022-08-30T05:07:45.129Z,11.05
2022-08-30T05:10:31.087Z,11.40
2022-08-30T05:13:18.924Z,11.18
2022-08-30T05:16:06.478Z,11.77
2022-08-30T05:18:52.607Z,11.43
2022-08-30T05:21:40.673Z,10.88
2022-08-30T05:24:27.411Z,12.00
2022-08-30T05:27:13.081Z,11.27
2022-08-30T05:29:59.026Z,11.60
2022-08-30T05:32:44.905Z,11.38
2022-08-30T05:35:30.708Z,12.13
2022-08-30T05:38:16.604Z,12.90
2022-08-30T05:41:07.783Z,30.10
2022-08-30T05:43:59.227Z,11.73
2022-08-30T05:46:46.335Z,11.68
2022-08-30T05:49:32.117Z,10.88
2022-08-30T05:52:18.140Z,10.88
2022-08-30T05:55:04.370Z,11.48
2022-08-30T05:57:50.061Z,11.20
2022-08-30T06:00:37.515Z,11.73
2022-08-30T06:03:23.666Z,10.55
2022-08-30T06:06:09.468Z,9.65
2022-08-30T06:08:55.376Z,9.68
2022-08-30T06:11:41.272Z,8.77
2022-08-30T06:14:27.236Z,8.55
2022-08-30T06:17:12.941Z,9.10
2022-08-30T06:19:58.857Z,8.38
2022-08-30T06:22:44.907Z,8.57
2022-08-30T06:25:41.156Z,7.90
2022-08-30T06:28:27.929Z,9.30
2022-08-30T06:31:15.631Z,8.82
2022-08-30T06:34:01.585Z,9.00
2022-08-30T06:36:47.555Z,8.45
2022-08-30T06:39:33.291Z,9.70
2022-08-30T06:42:18.966Z,9.75
2022-08-30T06:45:10.706Z,10.48
2022-08-30T06:50:54.006Z,9.27
2022-08-30T06:53:39.747Z,10.65
2022-08-30T06:56:27.633Z,12.38
2022-08-30T06:59:13.782Z,12.68
2022-08-30T07:01:59.767Z,13.25
2022-08-30T07:04:45.628Z,12.90
2022-08-30T07:07:31.677Z,12.25
2022-08-30T07:10:17.505Z,14.02
2022-08-30T07:13:03.216Z,13.32
2022-08-30T07:15:49.072Z,13.20
2022-08-30T07:18:53.498Z,15.13
2022-08-30T07:21:43.726Z,14.10
2022-08-30T07:24:29.533Z,12.63
2022-08-30T07:27:15.506Z,11.30
2022-08-30T07:30:02.676Z,11.38
2022-08-30T07:32:48.920Z,11.32
2022-08-30T07:35:34.470Z,10.85
2022-08-30T07:38:20.069Z,10.55
2022-08-30T07:41:06.395Z,10.25
2022-08-30T07:43:52.495Z,10.45
2022-08-30T07:46:38.712Z,9.10
2022-08-30T07:49:24.869Z,8.98
2022-08-30T07:52:10.614Z,7.78
2022-08-30T07:54:56.860Z,7.43
2022-08-30T07:57:43.130Z,8.63
2022-08-30T08:00:29.162Z,7.72
2022-08-30T08:03:14.904Z,7.85
2022-08-30T08:06:05.138Z,7.50
2022-08-30T08:08:51.092Z,8.43
2022-08-30T08:11:37.106Z,8.10
2022-08-30T08:14:23.658Z,8.32
2022-08-30T08:17:09.330Z,8.98
2022-08-30T08:19:55.227Z,7.90
2022-08-30T08:22:41.441Z,7.90
2022-08-30T08:25:27.242Z,7.10
2022-08-30T08:28:12.904Z,6.53
2022-08-30T08:30:59.073Z,6.47
2022-08-30T08:33:45.332Z,6.13
2022-08-30T08:36:32.439Z,5.55
2022-08-30T08:39:18.536Z,5.95
2022-08-30T08:42:48.647Z,5.40
2022-08-30T08:46:07.897Z,5.10
2022-08-30T08:49:00.557Z,4.90
2022-08-30T08:52:05.286Z,5.20
2022-08-30T08:54:59.349Z,5.18
2022-08-30T08:57:44.900Z,5.10
2022-08-30T09:00:31.932Z,5.20
2022-08-30T09:03:21.394Z,5.53
2022-08-30T09:06:18.816Z,5.70
2022-08-30T09:09:04.950Z,5.63
2022-08-30T09:11:50.515Z,5.00
2022-08-30T09:14:44.247Z,5.00
2022-08-30T09:17:59.371Z,5.22
2022-08-30T09:20:48.965Z,5.03
2022-08-30T09:23:34.595Z,4.53
2022-08-30T09:26:33.831Z,4.88
2022-08-30T09:29:20.100Z,6.47
2022-08-30T09:32:24.710Z,5.75
2022-08-30T09:35:18.024Z,6.53
2022-08-30T09:38:13.326Z,7.20
2022-08-30T09:41:21.038Z,8.65
2022-08-30T09:44:08.450Z,8.93
2022-08-30T09:46:56.935Z,9.30
2022-08-30T09:49:44.374Z,10.10
2022-08-30T09:52:42.565Z,9.75
2022-08-30T09:55:49.176Z,8.23
2022-08-30T09:58:59.387Z,7.65
2022-08-30T10:02:12.766Z,7.90
2022-08-30T10:05:07.973Z,6.80
2022-08-30T10:08:15.472Z,7.25
2022-08-30T10:11:07.459Z,7.43
2022-08-30T10:14:02.767Z,6.88
2022-08-30T10:17:06.158Z,6.43
2022-08-30T10:20:02.362Z,6.55
2022-08-30T10:22:58.681Z,5.93
2022-08-30T10:25:56.570Z,5.60
2022-08-30T10:28:50.408Z,5.82
2022-08-30T10:32:05.469Z,5.32
2022-08-30T10:35:09.907Z,6.00
2022-08-30T10:38:04.891Z,6.38
2022-08-30T10:41:13.682Z,6.18
2022-08-30T10:44:26.607Z,5.93
2022-08-30T10:47:37.727Z,6.65
2022-08-30T10:50:29.675Z,5.60
2022-08-30T10:53:33.880Z,5.35
2022-08-30T10:56:24.334Z,5.20
2022-08-30T10:59:12.147Z,7.10
2022-08-30T11:02:06.416Z,6.38
2022-08-30T11:05:27.478Z,6.22
2022-08-30T11:08:48.807Z,6.20
2022-08-30T11:11:51.587Z,6.05
2022-08-30T11:14:44.897Z,6.70
2022-08-30T11:17:56.045Z,7.10
2022-08-30T11:20:45.953Z,6.78
2022-08-30T11:23:35.882Z,7.15
2022-08-30T11:26:46.869Z,7.30
2022-08-30T11:29:38.452Z,7.15
2022-08-30T11:32:45.802Z,7.60
2022-08-30T11:35:52.337Z,8.88
2022-08-30T11:38:37.730Z,8.05
2022-08-30T11:41:46.198Z,8.80
2022-08-30T11:44:33.881Z,7.78
2022-08-30T11:47:47.192Z,9.55
2022-08-30T11:50:39.386Z,9.90
2022-08-30T11:53:42.798Z,9.07
2022-08-30T11:56:42.606Z,9.60
2022-08-30T11:59:50.058Z,10.63
2022-08-30T12:02:52.678Z,10.80
2022-08-30T12:05:38.539Z,10.10
2022-08-30T12:08:34.053Z,10.20
2022-08-30T12:11:19.763Z,10.52
2022-08-30T12:14:09.411Z,11.00
2022-08-30T12:17:15.028Z,10.23
2022-08-30T12:20:00.621Z,12.00
2022-08-30T12:22:47.282Z,11.13
2022-08-30T12:25:35.055Z,10.27
2022-08-30T12:28:28.549Z,9.68
2022-08-30T12:31:18.141Z,8.77
2022-08-30T12:34:04.534Z,9.45
2022-08-30T12:36:55.856Z,8.38
2022-08-30T12:39:43.374Z,9.10
2022-08-30T12:42:32.518Z,8.98
2022-08-30T12:45:21.593Z,9.63
2022-08-30T12:48:11.067Z,9.15
2022-08-30T12:50:59.154Z,8.52
2022-08-30T12:53:47.028Z,7.85
2022-08-30T12:56:54.171Z,7.45
2022-08-30T12:59:59.447Z,7.90
2022-08-30T13:02:52.158Z,7.00
2022-08-30T13:05:44.559Z,6.25
2022-08-30T13:08:51.619Z,6.35
2022-08-30T13:11:37.469Z,6.82
2022-08-30T13:14:42.405Z,7.03
2022-08-30T13:17:29.316Z,6.90
2022-08-30T13:20:17.681Z,6.63
2022-08-30T13:23:09.216Z,6.38
2022-08-30T13:25:54.966Z,6.20
2022-08-30T13:28:59.330Z,6.38
2022-08-30T13:31:45.425Z,5.32
2022-08-30T13:34:33.041Z,5.60
2022-08-30T13:40:28.479Z,6.15
2022-08-30T13:43:14.123Z,5.43
2022-08-30T13:46:00.855Z,5.95
2022-08-30T13:48:46.739Z,5.50
2022-08-30T13:51:33.031Z,5.25
2022-08-30T13:54:24.486Z,5.53
2022-08-30T13:57:10.215Z,5.00
2022-08-30T13:59:56.457Z,4.70
2022-08-30T14:02:46.367Z,4.30
2022-08-30T14:08:48.567Z,4.55
2022-08-30T14:11:37.377Z,5.25
2022-08-30T14:14:41.960Z,3.90
2022-08-30T14:17:30.906Z,3.88
2022-08-30T14:20:16.855Z,4.05
2022-08-30T14:23:03.983Z,3.42
2022-08-30T14:25:55.081Z,2.78
2022-08-30T14:28:42.032Z,2.20
2022-08-30T14:31:32.480Z,2.30
2022-08-30T14:34:19.335Z,2.22
2022-08-30T14:37:06.740Z,2.20
2022-08-30T14:39:52.840Z,2.40
2022-08-30T14:42:38.477Z,2.10
2022-08-30T14:45:24.363Z,2.13
2022-08-30T14:48:11.757Z,2.13
2022-08-30T14:51:00.099Z,2.00
2022-08-30T14:53:46.935Z,1.60
2022-08-30T14:56:32.366Z,1.90
2022-08-30T14:59:18.596Z,1.60
2022-08-30T15:02:04.093Z,1.73
2022-08-30T15:04:49.765Z,1.70
2022-08-30T15:07:35.128Z,1.85
2022-08-30T15:10:21.534Z,1.80
2022-08-30T15:13:07.095Z,2.10
2022-08-30T15:15:52.596Z,1.58
2022-08-30T15:18:38.637Z,1.75
2022-08-30T15:21:28.179Z,1.58
2022-08-30T15:24:18.161Z,1.77
2022-08-30T15:27:04.874Z,1.80
2022-08-30T15:29:51.533Z,1.80
2022-08-30T15:32:37.024Z,2.08
2022-08-30T15:35:22.832Z,1.75
2022-08-30T15:38:08.724Z,1.90
2022-08-30T15:41:02.128Z,1.50
2022-08-30T15:43:49.347Z,1.45
2022-08-30T15:46:37.937Z,1.75
2022-08-30T15:49:24.051Z,1.60
2022-08-30T15:52:09.657Z,1.90
2022-08-30T15:54:55.497Z,1.70
2022-08-30T15:57:41.358Z,2.00
2022-08-30T16:00:26.861Z,1.70
2022-08-30T16:03:12.337Z,1.90
2022-08-30T16:05:57.747Z,1.88
2022-08-30T16:08:44.102Z,1.77
2022-08-30T16:11:31.855Z,1.60
2022-08-30T16:14:17.546Z,1.90
2022-08-30T16:17:04.067Z,1.55
2022-08-30T16:19:50.779Z,2.00
2022-08-30T16:22:36.227Z,1.70
2022-08-30T16:25:21.844Z,1.70
2022-08-30T16:28:09.389Z,1.60
2022-08-30T16:30:54.916Z,1.58
2022-08-30T16:33:43.810Z,1.70
2022-08-30T16:36:32.130Z,5.28
2022-08-30T16:39:18.306Z,2.20
2022-08-30T16:42:04.550Z,2.05
2022-08-30T16:44:52.923Z,1.80
2022-08-30T16:47:38.774Z,1.83
2022-08-30T16:50:24.466Z,1.90
2022-08-30T16:53:11.594Z,1.73
2022-08-30T16:55:59.464Z,1.88
2022-08-30T16:58:46.243Z,2.25
2022-08-30T17:01:34.935Z,2.50
2022-08-30T17:04:21.052Z,2.40
2022-08-30T17:07:06.933Z,2.05
2022-08-30T17:09:59.838Z,1.77
2022-08-30T17:12:45.788Z,2.17
2022-08-30T17:15:31.795Z,1.75
2022-08-30T17:18:19.023Z,1.73
2022-08-30T17:21:05.357Z,2.03
2022-08-30T17:23:53.707Z,1.73
2022-08-30T17:26:44.665Z,1.70
2022-08-30T17:29:30.199Z,1.98
2022-08-30T17:32:16.061Z,1.90
2022-08-30T17:35:02.068Z,2.30
2022-08-30T17:37:48.057Z,2.40
2022-08-30T17:40:37.147Z,1.95
2022-08-30T17:43:25.670Z,1.90
2022-08-30T17:46:18.281Z,1.85
2022-08-30T17:49:04.080Z,1.90
2022-08-30T17:51:54.239Z,1.83
2022-08-30T17:54:42.816Z,2.13
2022-08-30T17:57:29.619Z,2.25
2022-08-30T18:00:15.874Z,2.33
2022-08-30T18:03:01.751Z,2.63
2022-08-30T18:05:48.159Z,2.47
2022-08-30T18:08:34.005Z,2.65
2022-08-30T18:11:20.403Z,2.28
2022-08-30T18:14:08.305Z,2.30
2022-08-30T18:16:57.416Z,1.95
2022-08-30T18:19:46.425Z,1.95
2022-08-30T18:22:32.614Z,1.90
2022-08-30T18:25:19.028Z,2.13
2022-08-30T18:28:05.806Z,2.00
2022-08-30T18:30:55.951Z,2.13
2022-08-30T18:33:42.143Z,2.42
2022-08-30T18:36:29.852Z,2.00
2022-08-30T18:39:17.232Z,1.75
2022-08-30T18:42:05.020Z,1.60
2022-08-30T18:44:52.656Z,1.60
2022-08-30T18:47:38.912Z,1.40
2022-08-30T18:50:24.686Z,1.40
2022-08-30T18:53:10.788Z,1.27
2022-08-30T18:55:56.470Z,1.63
2022-08-30T18:58:44.625Z,1.55
2022-08-30T19:01:30.580Z,1.60
2022-08-30T19:04:22.510Z,1.10
2022-08-30T19:07:18.217Z,1.40
2022-08-30T19:10:05.411Z,1.23
2022-08-30T19:12:51.454Z,1.42
2022-08-30T19:15:37.637Z,1.08
2022-08-30T19:18:23.537Z,1.33
2022-08-30T19:21:13.636Z,1.10
2022-08-30T19:24:00.198Z,1.10
2022-08-30T19:26:46.748Z,1.23
2022-08-30T19:29:32.862Z,1.15
2022-08-30T19:32:18.791Z,1.30
2022-08-30T19:35:05.323Z,1.17
2022-08-30T19:37:51.229Z,1.30
2022-08-30T19:40:37.170Z,1.30
2022-08-30T19:43:22.950Z,1.10
2022-08-30T19:46:10.947Z,1.38
2022-08-30T19:48:56.761Z,1.25
2022-08-30T19:51:46.729Z,1.23
2022-08-30T19:54:32.960Z,1.02
2022-08-30T19:57:18.703Z,1.10
2022-08-30T20:00:09.064Z,1.00
2022-08-30T20:03:01.616Z,1.45
2022-08-30T20:05:48.191Z,1.10
2022-08-30T20:08:34.868Z,1.10
2022-08-30T20:11:20.957Z,1.20
2022-08-30T20:14:06.546Z,1.13
2022-08-30T20:16:53.275Z,1.30
2022-08-30T20:19:39.658Z,1.00
2022-08-30T20:22:26.841Z,1.20
2022-08-30T20:25:17.102Z,1.20
2022-08-30T20:28:04.805Z,2.08
2022-08-30T20:30:51.226Z,1.13
2022-08-30T20:33:37.721Z,1.10
2022-08-30T20:36:23.882Z,1.13
2022-08-30T20:39:10.096Z,1.27
2022-08-30T20:41:56.011Z,1.52
2022-08-30T20:44:41.749Z,1.30
2022-08-30T20:47:28.101Z,1.10
2022-08-30T20:50:16.039Z,1.40
2022-08-30T20:53:02.730Z,1.00
2022-08-30T20:55:48.726Z,1.20
2022-08-30T20:58:34.540Z,1.45
2022-08-30T21:01:20.517Z,1.10
2022-08-30T21:04:08.572Z,1.13
2022-08-30T21:06:54.316Z,1.38
2022-08-30T21:09:40.262Z,1.33
2022-08-30T21:12:26.409Z,1.73
2022-08-30T21:15:33.840Z,1.33
2022-08-30T21:18:18.450Z,1.63
2022-08-30T21:21:15.307Z,1.30
2022-08-30T21:24:06.613Z,1.20
2022-08-30T21:26:52.667Z,1.33
2022-08-30T21:29:39.376Z,3.97
2022-08-30T21:32:25.306Z,1.50
2022-08-30T21:35:29.778Z,1.77
2022-08-30T21:38:16.187Z,1.30
2022-08-30T21:41:02.928Z,1.60
2022-08-30T21:43:49.313Z,1.80
2022-08-30T21:46:35.984Z,1.33
2022-08-30T21:49:23.434Z,1.40
2022-08-30T21:52:09.165Z,2.65
2022-08-30T21:54:55.516Z,1.50
2022-08-30T21:57:41.494Z,1.70
2022-08-30T22:00:27.462Z,1.30
2022-08-30T22:03:13.262Z,1.50
2022-08-30T22:05:58.973Z,1.38
2022-08-30T22:08:46.158Z,1.30
2022-08-30T22:11:32.184Z,1.50
2022-08-30T22:14:18.196Z,2.17
2022-08-30T22:17:05.022Z,1.80
2022-08-30T22:19:50.823Z,1.40
2022-08-30T22:22:36.885Z,1.40
2022-08-30T22:25:22.840Z,1.30
2022-08-30T22:28:09.369Z,1.35
2022-08-30T22:30:55.251Z,1.40
2022-08-30T22:33:41.244Z,1.38
2022-08-30T22:36:32.372Z,1.45
2022-08-30T22:39:18.734Z,2.10
2022-08-30T22:42:05.227Z,1.40
2022-08-30T22:44:52.161Z,1.40
2022-08-30T22:47:38.199Z,1.35
2022-08-30T22:50:24.290Z,1.40
2022-08-30T22:53:10.210Z,1.30
2022-08-30T22:55:56.102Z,1.20
2022-08-30T22:58:42.226Z,1.38
2022-08-30T23:01:37.742Z,1.60
2022-08-30T23:04:23.993Z,1.40
2022-08-30T23:07:11.772Z,1.25
2022-08-30T23:09:59.154Z,1.20
2022-08-30T23:12:45.124Z,1.40
2022-08-30T23:15:31.070Z,1.50
2022-08-30T23:18:17.089Z,1.40
2022-08-30T23:21:07.542Z,1.40
2022-08-30T23:24:16.061Z,1.45
2022-08-30T23:27:20.622Z,1.25
2022-08-30T23:30:25.749Z,1.30
2022-08-30T23:33:30.232Z,1.90
2022-08-30T23:36:34.611Z,1.33
2022-08-30T23:39:39.344Z,1.65
2022-08-30T23:42:43.835Z,1.40
2022-08-30T23:45:48.315Z,1.40
2022-08-30T23:48:52.986Z,1.40
2022-08-30T23:51:57.435Z,1.50
2022-08-30T23:55:02.082Z,1.60
2022-08-30T23:58:06.625Z,1.40
